<?xml version="1.0" encoding="UTF-8" standalone="no" ?>
<gpx xmlns="http://www.topografix.com/GPX/1/1" xmlns:xsi="http://www.w3.org/2001/XMLSchema-instance" xsi:schemaLocation="http://www.topografix.com/GPX/1/1 http://www.topografix.com/GPX/1/1/gpx.xsd" version="1.1" creator="VisuGPX - https://www.visugpx.com">
  <metadata>
    <name>Mortzwiller</name>
    <desc><![CDATA[Autour de Mortzwiller]]></desc>
  </metadata>
  <trk>
    <name><![CDATA[Mortzwiller_1]]></name>
    <trkseg>
      <trkpt lat="47.73137" lon="7.05224">
        <ele>380</ele>
        <time>2016-07-03T07:53:06Z</time>
      </trkpt>
      <trkpt lat="47.73137" lon="7.05224">
        <ele>427</ele>
        <time>2016-07-03T07:53:11Z</time>
      </trkpt>
      <trkpt lat="47.73129" lon="7.05256">
        <ele>437</ele>
        <time>2016-07-03T07:54:57Z</time>
      </trkpt>
      <trkpt lat="47.73129" lon="7.05256">
        <ele>437</ele>
        <time>2016-07-03T07:55:03Z</time>
      </trkpt>
      <trkpt lat="47.73129" lon="7.05256">
        <ele>437</ele>
        <time>2016-07-03T07:55:05Z</time>
      </trkpt>
      <trkpt lat="47.73119" lon="7.05234">
        <ele>434</ele>
        <time>2016-07-03T07:55:35Z</time>
      </trkpt>
      <trkpt lat="47.73108" lon="7.05236">
        <ele>431</ele>
        <time>2016-07-03T07:55:48Z</time>
      </trkpt>
      <trkpt lat="47.73092" lon="7.0526">
        <ele>431</ele>
        <time>2016-07-03T07:56:02Z</time>
      </trkpt>
      <trkpt lat="47.73092" lon="7.0526">
        <ele>431</ele>
        <time>2016-07-03T07:56:09Z</time>
      </trkpt>
      <trkpt lat="47.73092" lon="7.0526">
        <ele>431</ele>
        <time>2016-07-03T07:56:10Z</time>
      </trkpt>
      <trkpt lat="47.73075" lon="7.05277">
        <ele>428</ele>
        <time>2016-07-03T07:58:28Z</time>
      </trkpt>
      <trkpt lat="47.73067" lon="7.05286">
        <ele>426</ele>
        <time>2016-07-03T07:58:38Z</time>
      </trkpt>
      <trkpt lat="47.73056" lon="7.05301">
        <ele>430</ele>
        <time>2016-07-03T07:58:51Z</time>
      </trkpt>
      <trkpt lat="47.73047" lon="7.05323">
        <ele>429</ele>
        <time>2016-07-03T07:59:05Z</time>
      </trkpt>
      <trkpt lat="47.73054" lon="7.05342">
        <ele>427</ele>
        <time>2016-07-03T07:59:19Z</time>
      </trkpt>
      <trkpt lat="47.73064" lon="7.05366">
        <ele>424</ele>
        <time>2016-07-03T07:59:36Z</time>
      </trkpt>
      <trkpt lat="47.73077" lon="7.05378">
        <ele>421</ele>
        <time>2016-07-03T07:59:53Z</time>
      </trkpt>
      <trkpt lat="47.73089" lon="7.05386">
        <ele>422</ele>
        <time>2016-07-03T08:00:04Z</time>
      </trkpt>
      <trkpt lat="47.73103" lon="7.05398">
        <ele>421</ele>
        <time>2016-07-03T08:00:18Z</time>
      </trkpt>
      <trkpt lat="47.73118" lon="7.05412">
        <ele>420</ele>
        <time>2016-07-03T08:00:34Z</time>
      </trkpt>
      <trkpt lat="47.73128" lon="7.05428">
        <ele>419</ele>
        <time>2016-07-03T08:00:49Z</time>
      </trkpt>
      <trkpt lat="47.73138" lon="7.0544">
        <ele>422</ele>
        <time>2016-07-03T08:01:01Z</time>
      </trkpt>
      <trkpt lat="47.7315" lon="7.05454">
        <ele>420</ele>
        <time>2016-07-03T08:01:14Z</time>
      </trkpt>
      <trkpt lat="47.73155" lon="7.05462">
        <ele>419</ele>
        <time>2016-07-03T08:01:21Z</time>
      </trkpt>
      <trkpt lat="47.73161" lon="7.0547">
        <ele>417</ele>
        <time>2016-07-03T08:01:31Z</time>
      </trkpt>
      <trkpt lat="47.7317" lon="7.05486">
        <ele>414</ele>
        <time>2016-07-03T08:01:42Z</time>
      </trkpt>
      <trkpt lat="47.73182" lon="7.05502">
        <ele>412</ele>
        <time>2016-07-03T08:01:56Z</time>
      </trkpt>
      <trkpt lat="47.73189" lon="7.05517">
        <ele>413</ele>
        <time>2016-07-03T08:02:06Z</time>
      </trkpt>
      <trkpt lat="47.73203" lon="7.05536">
        <ele>411</ele>
        <time>2016-07-03T08:02:24Z</time>
      </trkpt>
      <trkpt lat="47.73216" lon="7.05553">
        <ele>408</ele>
        <time>2016-07-03T08:02:42Z</time>
      </trkpt>
      <trkpt lat="47.73233" lon="7.05566">
        <ele>408</ele>
        <time>2016-07-03T08:03:00Z</time>
      </trkpt>
      <trkpt lat="47.73251" lon="7.05571">
        <ele>410</ele>
        <time>2016-07-03T08:03:17Z</time>
      </trkpt>
      <trkpt lat="47.73267" lon="7.05574">
        <ele>407</ele>
        <time>2016-07-03T08:03:31Z</time>
      </trkpt>
      <trkpt lat="47.73282" lon="7.0558">
        <ele>407</ele>
        <time>2016-07-03T08:03:45Z</time>
      </trkpt>
      <trkpt lat="47.73302" lon="7.05591">
        <ele>402</ele>
        <time>2016-07-03T08:04:03Z</time>
      </trkpt>
      <trkpt lat="47.73317" lon="7.05602">
        <ele>398</ele>
        <time>2016-07-03T08:04:17Z</time>
      </trkpt>
      <trkpt lat="47.73335" lon="7.05614">
        <ele>397</ele>
        <time>2016-07-03T08:04:33Z</time>
      </trkpt>
      <trkpt lat="47.73351" lon="7.05627">
        <ele>398</ele>
        <time>2016-07-03T08:04:49Z</time>
      </trkpt>
      <trkpt lat="47.73366" lon="7.05651">
        <ele>398</ele>
        <time>2016-07-03T08:05:07Z</time>
      </trkpt>
      <trkpt lat="47.73382" lon="7.05669">
        <ele>399</ele>
        <time>2016-07-03T08:05:22Z</time>
      </trkpt>
      <trkpt lat="47.7339" lon="7.0565">
        <ele>398</ele>
        <time>2016-07-03T08:05:36Z</time>
      </trkpt>
      <trkpt lat="47.73395" lon="7.05627">
        <ele>396</ele>
        <time>2016-07-03T08:05:50Z</time>
      </trkpt>
      <trkpt lat="47.73403" lon="7.05607">
        <ele>399</ele>
        <time>2016-07-03T08:06:02Z</time>
      </trkpt>
      <trkpt lat="47.73412" lon="7.05582">
        <ele>399</ele>
        <time>2016-07-03T08:06:18Z</time>
      </trkpt>
      <trkpt lat="47.73421" lon="7.05556">
        <ele>403</ele>
        <time>2016-07-03T08:06:32Z</time>
      </trkpt>
      <trkpt lat="47.73424" lon="7.05538">
        <ele>401</ele>
        <time>2016-07-03T08:06:41Z</time>
      </trkpt>
      <trkpt lat="47.73426" lon="7.05523">
        <ele>401</ele>
        <time>2016-07-03T08:06:49Z</time>
      </trkpt>
      <trkpt lat="47.73428" lon="7.05503">
        <ele>400</ele>
        <time>2016-07-03T08:07:00Z</time>
      </trkpt>
      <trkpt lat="47.73434" lon="7.05474">
        <ele>401</ele>
        <time>2016-07-03T08:07:16Z</time>
      </trkpt>
      <trkpt lat="47.73437" lon="7.05449">
        <ele>400</ele>
        <time>2016-07-03T08:07:30Z</time>
      </trkpt>
      <trkpt lat="47.7344" lon="7.05416">
        <ele>402</ele>
        <time>2016-07-03T08:07:50Z</time>
      </trkpt>
      <trkpt lat="47.73451" lon="7.05394">
        <ele>403</ele>
        <time>2016-07-03T08:08:07Z</time>
      </trkpt>
      <trkpt lat="47.7347" lon="7.05404">
        <ele>401</ele>
        <time>2016-07-03T08:08:23Z</time>
      </trkpt>
      <trkpt lat="47.73486" lon="7.05411">
        <ele>399</ele>
        <time>2016-07-03T08:08:35Z</time>
      </trkpt>
      <trkpt lat="47.73505" lon="7.05427">
        <ele>397</ele>
        <time>2016-07-03T08:08:52Z</time>
      </trkpt>
      <trkpt lat="47.73521" lon="7.05443">
        <ele>394</ele>
        <time>2016-07-03T08:09:08Z</time>
      </trkpt>
      <trkpt lat="47.73538" lon="7.05459">
        <ele>391</ele>
        <time>2016-07-03T08:09:24Z</time>
      </trkpt>
      <trkpt lat="47.73552" lon="7.05473">
        <ele>392</ele>
        <time>2016-07-03T08:09:38Z</time>
      </trkpt>
      <trkpt lat="47.73569" lon="7.05495">
        <ele>391</ele>
        <time>2016-07-03T08:09:56Z</time>
      </trkpt>
      <trkpt lat="47.73581" lon="7.05512">
        <ele>391</ele>
        <time>2016-07-03T08:10:09Z</time>
      </trkpt>
      <trkpt lat="47.73601" lon="7.05526">
        <ele>388</ele>
        <time>2016-07-03T08:10:27Z</time>
      </trkpt>
      <trkpt lat="47.73618" lon="7.05525">
        <ele>391</ele>
        <time>2016-07-03T08:10:42Z</time>
      </trkpt>
      <trkpt lat="47.73632" lon="7.05524">
        <ele>393</ele>
        <time>2016-07-03T08:10:49Z</time>
      </trkpt>
      <trkpt lat="47.73645" lon="7.05522">
        <ele>394</ele>
        <time>2016-07-03T08:11:02Z</time>
      </trkpt>
      <trkpt lat="47.73662" lon="7.05524">
        <ele>394</ele>
        <time>2016-07-03T08:11:18Z</time>
      </trkpt>
      <trkpt lat="47.73678" lon="7.05523">
        <ele>391</ele>
        <time>2016-07-03T08:11:33Z</time>
      </trkpt>
      <trkpt lat="47.73697" lon="7.05524">
        <ele>393</ele>
        <time>2016-07-03T08:11:50Z</time>
      </trkpt>
      <trkpt lat="47.73712" lon="7.05525">
        <ele>398</ele>
        <time>2016-07-03T08:12:01Z</time>
      </trkpt>
      <trkpt lat="47.73725" lon="7.05517">
        <ele>399</ele>
        <time>2016-07-03T08:12:13Z</time>
      </trkpt>
      <trkpt lat="47.7374" lon="7.05514">
        <ele>400</ele>
        <time>2016-07-03T08:12:25Z</time>
      </trkpt>
      <trkpt lat="47.73757" lon="7.05509">
        <ele>402</ele>
        <time>2016-07-03T08:12:40Z</time>
      </trkpt>
      <trkpt lat="47.73775" lon="7.05504">
        <ele>406</ele>
        <time>2016-07-03T08:12:56Z</time>
      </trkpt>
      <trkpt lat="47.73796" lon="7.05504">
        <ele>407</ele>
        <time>2016-07-03T08:13:15Z</time>
      </trkpt>
      <trkpt lat="47.73817" lon="7.05502">
        <ele>406</ele>
        <time>2016-07-03T08:13:34Z</time>
      </trkpt>
      <trkpt lat="47.73835" lon="7.05499">
        <ele>410</ele>
        <time>2016-07-03T08:13:48Z</time>
      </trkpt>
      <trkpt lat="47.73851" lon="7.05501">
        <ele>412</ele>
        <time>2016-07-03T08:14:03Z</time>
      </trkpt>
      <trkpt lat="47.7387" lon="7.05506">
        <ele>413</ele>
        <time>2016-07-03T08:14:20Z</time>
      </trkpt>
      <trkpt lat="47.73879" lon="7.05507">
        <ele>413</ele>
        <time>2016-07-03T08:14:28Z</time>
      </trkpt>
      <trkpt lat="47.73898" lon="7.05511">
        <ele>413</ele>
        <time>2016-07-03T08:14:48Z</time>
      </trkpt>
      <trkpt lat="47.73916" lon="7.05512">
        <ele>415</ele>
        <time>2016-07-03T08:15:04Z</time>
      </trkpt>
      <trkpt lat="47.73935" lon="7.05513">
        <ele>418</ele>
        <time>2016-07-03T08:15:21Z</time>
      </trkpt>
      <trkpt lat="47.73949" lon="7.05518">
        <ele>417</ele>
        <time>2016-07-03T08:15:35Z</time>
      </trkpt>
      <trkpt lat="47.73961" lon="7.05518">
        <ele>418</ele>
        <time>2016-07-03T08:15:47Z</time>
      </trkpt>
      <trkpt lat="47.73961" lon="7.05518">
        <ele>418</ele>
        <time>2016-07-03T08:15:55Z</time>
      </trkpt>
      <trkpt lat="47.73961" lon="7.05518">
        <ele>418</ele>
        <time>2016-07-03T08:15:56Z</time>
      </trkpt>
      <trkpt lat="47.73988" lon="7.05524">
        <ele>422</ele>
        <time>2016-07-03T08:16:41Z</time>
      </trkpt>
      <trkpt lat="47.73999" lon="7.05529">
        <ele>422</ele>
        <time>2016-07-03T08:16:53Z</time>
      </trkpt>
      <trkpt lat="47.74015" lon="7.05532">
        <ele>426</ele>
        <time>2016-07-03T08:17:06Z</time>
      </trkpt>
      <trkpt lat="47.74028" lon="7.05538">
        <ele>426</ele>
        <time>2016-07-03T08:17:19Z</time>
      </trkpt>
      <trkpt lat="47.74045" lon="7.05544">
        <ele>429</ele>
        <time>2016-07-03T08:17:36Z</time>
      </trkpt>
      <trkpt lat="47.74061" lon="7.05556">
        <ele>432</ele>
        <time>2016-07-03T08:17:57Z</time>
      </trkpt>
      <trkpt lat="47.74078" lon="7.0558">
        <ele>432</ele>
        <time>2016-07-03T08:18:14Z</time>
      </trkpt>
      <trkpt lat="47.74087" lon="7.05586">
        <ele>428</ele>
        <time>2016-07-03T08:18:24Z</time>
      </trkpt>
      <trkpt lat="47.74101" lon="7.05606">
        <ele>429</ele>
        <time>2016-07-03T08:18:39Z</time>
      </trkpt>
      <trkpt lat="47.74119" lon="7.05611">
        <ele>432</ele>
        <time>2016-07-03T08:18:56Z</time>
      </trkpt>
      <trkpt lat="47.74134" lon="7.05584">
        <ele>432</ele>
        <time>2016-07-03T08:19:17Z</time>
      </trkpt>
      <trkpt lat="47.74136" lon="7.05558">
        <ele>434</ele>
        <time>2016-07-03T08:19:34Z</time>
      </trkpt>
      <trkpt lat="47.74139" lon="7.05539">
        <ele>432</ele>
        <time>2016-07-03T08:19:44Z</time>
      </trkpt>
      <trkpt lat="47.74144" lon="7.05501">
        <ele>436</ele>
        <time>2016-07-03T08:20:01Z</time>
      </trkpt>
      <trkpt lat="47.74147" lon="7.05484">
        <ele>438</ele>
        <time>2016-07-03T08:20:09Z</time>
      </trkpt>
      <trkpt lat="47.74154" lon="7.05463">
        <ele>438</ele>
        <time>2016-07-03T08:20:21Z</time>
      </trkpt>
      <trkpt lat="47.74164" lon="7.05461">
        <ele>433</ele>
        <time>2016-07-03T08:20:32Z</time>
      </trkpt>
      <trkpt lat="47.74188" lon="7.05458">
        <ele>435</ele>
        <time>2016-07-03T08:20:51Z</time>
      </trkpt>
      <trkpt lat="47.74207" lon="7.05458">
        <ele>434</ele>
        <time>2016-07-03T08:21:08Z</time>
      </trkpt>
      <trkpt lat="47.74225" lon="7.05459">
        <ele>436</ele>
        <time>2016-07-03T08:21:23Z</time>
      </trkpt>
      <trkpt lat="47.74238" lon="7.0546">
        <ele>433</ele>
        <time>2016-07-03T08:21:33Z</time>
      </trkpt>
      <trkpt lat="47.74256" lon="7.0546">
        <ele>432</ele>
        <time>2016-07-03T08:21:47Z</time>
      </trkpt>
      <trkpt lat="47.74265" lon="7.0546">
        <ele>430</ele>
        <time>2016-07-03T08:21:57Z</time>
      </trkpt>
      <trkpt lat="47.74286" lon="7.05459">
        <ele>426</ele>
        <time>2016-07-03T08:22:13Z</time>
      </trkpt>
      <trkpt lat="47.743" lon="7.05457">
        <ele>429</ele>
        <time>2016-07-03T08:22:24Z</time>
      </trkpt>
      <trkpt lat="47.74314" lon="7.05454">
        <ele>431</ele>
        <time>2016-07-03T08:22:36Z</time>
      </trkpt>
      <trkpt lat="47.74332" lon="7.05446">
        <ele>430</ele>
        <time>2016-07-03T08:22:54Z</time>
      </trkpt>
      <trkpt lat="47.74337" lon="7.05445">
        <ele>429</ele>
        <time>2016-07-03T08:22:58Z</time>
      </trkpt>
      <trkpt lat="47.7434" lon="7.05442">
        <ele>428</ele>
        <time>2016-07-03T08:23:06Z</time>
      </trkpt>
      <trkpt lat="47.74365" lon="7.05421">
        <ele>430</ele>
        <time>2016-07-03T08:23:37Z</time>
      </trkpt>
      <trkpt lat="47.74375" lon="7.05406">
        <ele>433</ele>
        <time>2016-07-03T08:23:47Z</time>
      </trkpt>
      <trkpt lat="47.74387" lon="7.05385">
        <ele>432</ele>
        <time>2016-07-03T08:24:03Z</time>
      </trkpt>
      <trkpt lat="47.74405" lon="7.05355">
        <ele>435</ele>
        <time>2016-07-03T08:24:21Z</time>
      </trkpt>
      <trkpt lat="47.74421" lon="7.05346">
        <ele>437</ele>
        <time>2016-07-03T08:24:34Z</time>
      </trkpt>
      <trkpt lat="47.74426" lon="7.05342">
        <ele>437</ele>
        <time>2016-07-03T08:24:38Z</time>
      </trkpt>
      <trkpt lat="47.74436" lon="7.05339">
        <ele>435</ele>
        <time>2016-07-03T08:24:48Z</time>
      </trkpt>
      <trkpt lat="47.74455" lon="7.05337">
        <ele>435</ele>
        <time>2016-07-03T08:25:03Z</time>
      </trkpt>
      <trkpt lat="47.74468" lon="7.05335">
        <ele>434</ele>
        <time>2016-07-03T08:25:13Z</time>
      </trkpt>
      <trkpt lat="47.74489" lon="7.05331">
        <ele>435</ele>
        <time>2016-07-03T08:25:29Z</time>
      </trkpt>
      <trkpt lat="47.74509" lon="7.05328">
        <ele>435</ele>
        <time>2016-07-03T08:25:45Z</time>
      </trkpt>
      <trkpt lat="47.74528" lon="7.05323">
        <ele>431</ele>
        <time>2016-07-03T08:26:04Z</time>
      </trkpt>
      <trkpt lat="47.74545" lon="7.05317">
        <ele>432</ele>
        <time>2016-07-03T08:26:18Z</time>
      </trkpt>
      <trkpt lat="47.74561" lon="7.05312">
        <ele>432</ele>
        <time>2016-07-03T08:26:33Z</time>
      </trkpt>
      <trkpt lat="47.7458" lon="7.05305">
        <ele>432</ele>
        <time>2016-07-03T08:26:48Z</time>
      </trkpt>
      <trkpt lat="47.74597" lon="7.053">
        <ele>431</ele>
        <time>2016-07-03T08:27:00Z</time>
      </trkpt>
      <trkpt lat="47.7461" lon="7.05296">
        <ele>431</ele>
        <time>2016-07-03T08:27:13Z</time>
      </trkpt>
      <trkpt lat="47.74622" lon="7.05294">
        <ele>429</ele>
        <time>2016-07-03T08:27:22Z</time>
      </trkpt>
      <trkpt lat="47.74643" lon="7.05296">
        <ele>423</ele>
        <time>2016-07-03T08:27:38Z</time>
      </trkpt>
      <trkpt lat="47.74666" lon="7.053">
        <ele>423</ele>
        <time>2016-07-03T08:27:57Z</time>
      </trkpt>
      <trkpt lat="47.74689" lon="7.05304">
        <ele>421</ele>
        <time>2016-07-03T08:28:16Z</time>
      </trkpt>
      <trkpt lat="47.74709" lon="7.05307">
        <ele>417</ele>
        <time>2016-07-03T08:28:32Z</time>
      </trkpt>
      <trkpt lat="47.7473" lon="7.05309">
        <ele>417</ele>
        <time>2016-07-03T08:28:49Z</time>
      </trkpt>
      <trkpt lat="47.74744" lon="7.05309">
        <ele>416</ele>
        <time>2016-07-03T08:29:02Z</time>
      </trkpt>
      <trkpt lat="47.74765" lon="7.05307">
        <ele>418</ele>
        <time>2016-07-03T08:29:17Z</time>
      </trkpt>
      <trkpt lat="47.74784" lon="7.05308">
        <ele>420</ele>
        <time>2016-07-03T08:29:31Z</time>
      </trkpt>
      <trkpt lat="47.74798" lon="7.05307">
        <ele>420</ele>
        <time>2016-07-03T08:29:42Z</time>
      </trkpt>
      <trkpt lat="47.74822" lon="7.05306">
        <ele>423</ele>
        <time>2016-07-03T08:30:01Z</time>
      </trkpt>
      <trkpt lat="47.74843" lon="7.05306">
        <ele>422</ele>
        <time>2016-07-03T08:30:19Z</time>
      </trkpt>
      <trkpt lat="47.74862" lon="7.05306">
        <ele>422</ele>
        <time>2016-07-03T08:30:34Z</time>
      </trkpt>
      <trkpt lat="47.74885" lon="7.05314">
        <ele>422</ele>
        <time>2016-07-03T08:30:52Z</time>
      </trkpt>
      <trkpt lat="47.74903" lon="7.05318">
        <ele>420</ele>
        <time>2016-07-03T08:31:08Z</time>
      </trkpt>
      <trkpt lat="47.74929" lon="7.05323">
        <ele>419</ele>
        <time>2016-07-03T08:31:26Z</time>
      </trkpt>
      <trkpt lat="47.74949" lon="7.05325">
        <ele>420</ele>
        <time>2016-07-03T08:31:42Z</time>
      </trkpt>
      <trkpt lat="47.74971" lon="7.05326">
        <ele>422</ele>
        <time>2016-07-03T08:32:00Z</time>
      </trkpt>
      <trkpt lat="47.74989" lon="7.05323">
        <ele>423</ele>
        <time>2016-07-03T08:32:13Z</time>
      </trkpt>
      <trkpt lat="47.75003" lon="7.05319">
        <ele>424</ele>
        <time>2016-07-03T08:32:25Z</time>
      </trkpt>
      <trkpt lat="47.75021" lon="7.05316">
        <ele>424</ele>
        <time>2016-07-03T08:32:41Z</time>
      </trkpt>
      <trkpt lat="47.75042" lon="7.05317">
        <ele>426</ele>
        <time>2016-07-03T08:32:59Z</time>
      </trkpt>
      <trkpt lat="47.75064" lon="7.0532">
        <ele>422</ele>
        <time>2016-07-03T08:33:16Z</time>
      </trkpt>
      <trkpt lat="47.75081" lon="7.05323">
        <ele>424</ele>
        <time>2016-07-03T08:33:28Z</time>
      </trkpt>
      <trkpt lat="47.75097" lon="7.05326">
        <ele>424</ele>
        <time>2016-07-03T08:33:40Z</time>
      </trkpt>
      <trkpt lat="47.75114" lon="7.05327">
        <ele>421</ele>
        <time>2016-07-03T08:33:52Z</time>
      </trkpt>
      <trkpt lat="47.75123" lon="7.05331">
        <ele>421</ele>
        <time>2016-07-03T08:34:00Z</time>
      </trkpt>
      <trkpt lat="47.75139" lon="7.05336">
        <ele>420</ele>
        <time>2016-07-03T08:34:12Z</time>
      </trkpt>
      <trkpt lat="47.75153" lon="7.05341">
        <ele>417</ele>
        <time>2016-07-03T08:34:27Z</time>
      </trkpt>
      <trkpt lat="47.75178" lon="7.05356">
        <ele>418</ele>
        <time>2016-07-03T08:34:45Z</time>
      </trkpt>
      <trkpt lat="47.75189" lon="7.0536">
        <ele>417</ele>
        <time>2016-07-03T08:34:52Z</time>
      </trkpt>
      <trkpt lat="47.75193" lon="7.05361">
        <ele>418</ele>
        <time>2016-07-03T08:34:57Z</time>
      </trkpt>
      <trkpt lat="47.75195" lon="7.05343">
        <ele>417</ele>
        <time>2016-07-03T08:35:10Z</time>
      </trkpt>
      <trkpt lat="47.752" lon="7.05318">
        <ele>419</ele>
        <time>2016-07-03T08:35:24Z</time>
      </trkpt>
      <trkpt lat="47.75206" lon="7.05293">
        <ele>420</ele>
        <time>2016-07-03T08:35:35Z</time>
      </trkpt>
      <trkpt lat="47.75212" lon="7.05263">
        <ele>419</ele>
        <time>2016-07-03T08:35:53Z</time>
      </trkpt>
      <trkpt lat="47.75217" lon="7.05246">
        <ele>417</ele>
        <time>2016-07-03T08:36:06Z</time>
      </trkpt>
      <trkpt lat="47.75221" lon="7.05227">
        <ele>419</ele>
        <time>2016-07-03T08:36:17Z</time>
      </trkpt>
      <trkpt lat="47.75223" lon="7.05217">
        <ele>421</ele>
        <time>2016-07-03T08:36:27Z</time>
      </trkpt>
      <trkpt lat="47.75225" lon="7.05198">
        <ele>425</ele>
        <time>2016-07-03T08:36:33Z</time>
      </trkpt>
      <trkpt lat="47.75226" lon="7.05194">
        <ele>426</ele>
        <time>2016-07-03T08:36:37Z</time>
      </trkpt>
      <trkpt lat="47.75227" lon="7.05178">
        <ele>425</ele>
        <time>2016-07-03T08:36:49Z</time>
      </trkpt>
      <trkpt lat="47.75226" lon="7.05148">
        <ele>425</ele>
        <time>2016-07-03T08:37:04Z</time>
      </trkpt>
      <trkpt lat="47.75223" lon="7.0512">
        <ele>425</ele>
        <time>2016-07-03T08:37:19Z</time>
      </trkpt>
      <trkpt lat="47.75218" lon="7.05095">
        <ele>425</ele>
        <time>2016-07-03T08:37:31Z</time>
      </trkpt>
      <trkpt lat="47.75206" lon="7.05068">
        <ele>422</ele>
        <time>2016-07-03T08:37:49Z</time>
      </trkpt>
      <trkpt lat="47.75203" lon="7.05054">
        <ele>423</ele>
        <time>2016-07-03T08:37:56Z</time>
      </trkpt>
      <trkpt lat="47.75204" lon="7.05049">
        <ele>422</ele>
        <time>2016-07-03T08:38:04Z</time>
      </trkpt>
      <trkpt lat="47.75213" lon="7.05015">
        <ele>421</ele>
        <time>2016-07-03T08:38:30Z</time>
      </trkpt>
      <trkpt lat="47.7522" lon="7.04983">
        <ele>423</ele>
        <time>2016-07-03T08:38:43Z</time>
      </trkpt>
      <trkpt lat="47.75226" lon="7.04958">
        <ele>425</ele>
        <time>2016-07-03T08:38:55Z</time>
      </trkpt>
      <trkpt lat="47.75227" lon="7.04953">
        <ele>424</ele>
        <time>2016-07-03T08:39:01Z</time>
      </trkpt>
      <trkpt lat="47.75225" lon="7.04939">
        <ele>425</ele>
        <time>2016-07-03T08:39:12Z</time>
      </trkpt>
      <trkpt lat="47.75212" lon="7.04926">
        <ele>424</ele>
        <time>2016-07-03T08:39:23Z</time>
      </trkpt>
      <trkpt lat="47.75199" lon="7.04918">
        <ele>423</ele>
        <time>2016-07-03T08:39:34Z</time>
      </trkpt>
      <trkpt lat="47.75182" lon="7.04904">
        <ele>422</ele>
        <time>2016-07-03T08:39:48Z</time>
      </trkpt>
      <trkpt lat="47.7517" lon="7.049">
        <ele>423</ele>
        <time>2016-07-03T08:39:58Z</time>
      </trkpt>
      <trkpt lat="47.75149" lon="7.04885">
        <ele>423</ele>
        <time>2016-07-03T08:40:19Z</time>
      </trkpt>
      <trkpt lat="47.75131" lon="7.04874">
        <ele>419</ele>
        <time>2016-07-03T08:40:34Z</time>
      </trkpt>
      <trkpt lat="47.75112" lon="7.04865">
        <ele>416</ele>
        <time>2016-07-03T08:40:52Z</time>
      </trkpt>
      <trkpt lat="47.751" lon="7.04859">
        <ele>416</ele>
        <time>2016-07-03T08:41:01Z</time>
      </trkpt>
      <trkpt lat="47.75083" lon="7.04852">
        <ele>417</ele>
        <time>2016-07-03T08:41:16Z</time>
      </trkpt>
      <trkpt lat="47.75071" lon="7.04847">
        <ele>413</ele>
        <time>2016-07-03T08:41:27Z</time>
      </trkpt>
      <trkpt lat="47.75055" lon="7.04837">
        <ele>412</ele>
        <time>2016-07-03T08:41:42Z</time>
      </trkpt>
      <trkpt lat="47.75035" lon="7.04824">
        <ele>413</ele>
        <time>2016-07-03T08:42:02Z</time>
      </trkpt>
      <trkpt lat="47.7502" lon="7.0482">
        <ele>414</ele>
        <time>2016-07-03T08:42:17Z</time>
      </trkpt>
      <trkpt lat="47.7502" lon="7.0482">
        <ele>414</ele>
        <time>2016-07-03T08:42:24Z</time>
      </trkpt>
      <trkpt lat="47.7502" lon="7.0482">
        <ele>414</ele>
        <time>2016-07-03T08:42:25Z</time>
      </trkpt>
      <trkpt lat="47.74987" lon="7.04816">
        <ele>418</ele>
        <time>2016-07-03T08:43:02Z</time>
      </trkpt>
      <trkpt lat="47.74975" lon="7.04812">
        <ele>417</ele>
        <time>2016-07-03T08:43:12Z</time>
      </trkpt>
      <trkpt lat="47.74973" lon="7.04813">
        <ele>419</ele>
        <time>2016-07-03T08:43:21Z</time>
      </trkpt>
      <trkpt lat="47.74947" lon="7.04809">
        <ele>421</ele>
        <time>2016-07-03T08:43:53Z</time>
      </trkpt>
      <trkpt lat="47.74928" lon="7.04804">
        <ele>420</ele>
        <time>2016-07-03T08:44:09Z</time>
      </trkpt>
      <trkpt lat="47.74914" lon="7.048">
        <ele>423</ele>
        <time>2016-07-03T08:44:23Z</time>
      </trkpt>
      <trkpt lat="47.74903" lon="7.04799">
        <ele>423</ele>
        <time>2016-07-03T08:44:34Z</time>
      </trkpt>
      <trkpt lat="47.74892" lon="7.04798">
        <ele>424</ele>
        <time>2016-07-03T08:44:43Z</time>
      </trkpt>
      <trkpt lat="47.74879" lon="7.04797">
        <ele>422</ele>
        <time>2016-07-03T08:44:54Z</time>
      </trkpt>
      <trkpt lat="47.74861" lon="7.04795">
        <ele>423</ele>
        <time>2016-07-03T08:45:09Z</time>
      </trkpt>
      <trkpt lat="47.74843" lon="7.04794">
        <ele>425</ele>
        <time>2016-07-03T08:45:25Z</time>
      </trkpt>
      <trkpt lat="47.74824" lon="7.04799">
        <ele>426</ele>
        <time>2016-07-03T08:45:40Z</time>
      </trkpt>
      <trkpt lat="47.74806" lon="7.04806">
        <ele>424</ele>
        <time>2016-07-03T08:45:56Z</time>
      </trkpt>
      <trkpt lat="47.74789" lon="7.04808">
        <ele>422</ele>
        <time>2016-07-03T08:46:10Z</time>
      </trkpt>
      <trkpt lat="47.74779" lon="7.04808">
        <ele>423</ele>
        <time>2016-07-03T08:46:19Z</time>
      </trkpt>
      <trkpt lat="47.7476" lon="7.04799">
        <ele>423</ele>
        <time>2016-07-03T08:46:35Z</time>
      </trkpt>
      <trkpt lat="47.74741" lon="7.04793">
        <ele>423</ele>
        <time>2016-07-03T08:46:50Z</time>
      </trkpt>
      <trkpt lat="47.74732" lon="7.0479">
        <ele>427</ele>
        <time>2016-07-03T08:46:57Z</time>
      </trkpt>
      <trkpt lat="47.74717" lon="7.04786">
        <ele>429</ele>
        <time>2016-07-03T08:47:09Z</time>
      </trkpt>
      <trkpt lat="47.74699" lon="7.0478">
        <ele>427</ele>
        <time>2016-07-03T08:47:24Z</time>
      </trkpt>
      <trkpt lat="47.7468" lon="7.04769">
        <ele>426</ele>
        <time>2016-07-03T08:47:39Z</time>
      </trkpt>
      <trkpt lat="47.74666" lon="7.04765">
        <ele>424</ele>
        <time>2016-07-03T08:47:52Z</time>
      </trkpt>
      <trkpt lat="47.74649" lon="7.04757">
        <ele>425</ele>
        <time>2016-07-03T08:48:07Z</time>
      </trkpt>
      <trkpt lat="47.74633" lon="7.04751">
        <ele>425</ele>
        <time>2016-07-03T08:48:22Z</time>
      </trkpt>
      <trkpt lat="47.74615" lon="7.04743">
        <ele>427</ele>
        <time>2016-07-03T08:48:37Z</time>
      </trkpt>
      <trkpt lat="47.74601" lon="7.04732">
        <ele>425</ele>
        <time>2016-07-03T08:48:50Z</time>
      </trkpt>
      <trkpt lat="47.74588" lon="7.04725">
        <ele>428</ele>
        <time>2016-07-03T08:49:02Z</time>
      </trkpt>
      <trkpt lat="47.74575" lon="7.04717">
        <ele>428</ele>
        <time>2016-07-03T08:49:15Z</time>
      </trkpt>
      <trkpt lat="47.74558" lon="7.04707">
        <ele>428</ele>
        <time>2016-07-03T08:49:29Z</time>
      </trkpt>
      <trkpt lat="47.74542" lon="7.04696">
        <ele>429</ele>
        <time>2016-07-03T08:49:43Z</time>
      </trkpt>
      <trkpt lat="47.74527" lon="7.04686">
        <ele>434</ele>
        <time>2016-07-03T08:49:56Z</time>
      </trkpt>
      <trkpt lat="47.7451" lon="7.04676">
        <ele>436</ele>
        <time>2016-07-03T08:50:12Z</time>
      </trkpt>
      <trkpt lat="47.74498" lon="7.04663">
        <ele>436</ele>
        <time>2016-07-03T08:50:25Z</time>
      </trkpt>
      <trkpt lat="47.74485" lon="7.04652">
        <ele>436</ele>
        <time>2016-07-03T08:50:36Z</time>
      </trkpt>
      <trkpt lat="47.7447" lon="7.04637">
        <ele>435</ele>
        <time>2016-07-03T08:50:51Z</time>
      </trkpt>
      <trkpt lat="47.74456" lon="7.04621">
        <ele>436</ele>
        <time>2016-07-03T08:51:05Z</time>
      </trkpt>
      <trkpt lat="47.74443" lon="7.04601">
        <ele>432</ele>
        <time>2016-07-03T08:51:21Z</time>
      </trkpt>
      <trkpt lat="47.74426" lon="7.0458">
        <ele>436</ele>
        <time>2016-07-03T08:51:38Z</time>
      </trkpt>
      <trkpt lat="47.74418" lon="7.0456">
        <ele>435</ele>
        <time>2016-07-03T08:51:52Z</time>
      </trkpt>
      <trkpt lat="47.7442" lon="7.04553">
        <ele>434</ele>
        <time>2016-07-03T08:51:58Z</time>
      </trkpt>
      <trkpt lat="47.74422" lon="7.04549">
        <ele>434</ele>
        <time>2016-07-03T08:52:06Z</time>
      </trkpt>
      <trkpt lat="47.74409" lon="7.04518">
        <ele>430</ele>
        <time>2016-07-03T08:52:33Z</time>
      </trkpt>
      <trkpt lat="47.74409" lon="7.04518">
        <ele>430</ele>
        <time>2016-07-03T08:52:41Z</time>
      </trkpt>
      <trkpt lat="47.74409" lon="7.04518">
        <ele>430</ele>
        <time>2016-07-03T08:52:42Z</time>
      </trkpt>
      <trkpt lat="47.74401" lon="7.04497">
        <ele>434</ele>
        <time>2016-07-03T08:52:57Z</time>
      </trkpt>
      <trkpt lat="47.74396" lon="7.04476">
        <ele>435</ele>
        <time>2016-07-03T08:53:09Z</time>
      </trkpt>
      <trkpt lat="47.7439" lon="7.04444">
        <ele>433</ele>
        <time>2016-07-03T08:53:28Z</time>
      </trkpt>
      <trkpt lat="47.74381" lon="7.04413">
        <ele>433</ele>
        <time>2016-07-03T08:53:46Z</time>
      </trkpt>
      <trkpt lat="47.74375" lon="7.04402">
        <ele>431</ele>
        <time>2016-07-03T08:53:55Z</time>
      </trkpt>
      <trkpt lat="47.74374" lon="7.04401">
        <ele>431</ele>
        <time>2016-07-03T08:54:04Z</time>
      </trkpt>
      <trkpt lat="47.74359" lon="7.04385">
        <ele>427</ele>
        <time>2016-07-03T08:54:25Z</time>
      </trkpt>
      <trkpt lat="47.74342" lon="7.04372">
        <ele>424</ele>
        <time>2016-07-03T08:54:41Z</time>
      </trkpt>
      <trkpt lat="47.74323" lon="7.04356">
        <ele>423</ele>
        <time>2016-07-03T08:55:00Z</time>
      </trkpt>
      <trkpt lat="47.74311" lon="7.04344">
        <ele>423</ele>
        <time>2016-07-03T08:55:15Z</time>
      </trkpt>
      <trkpt lat="47.74294" lon="7.04329">
        <ele>423</ele>
        <time>2016-07-03T08:55:29Z</time>
      </trkpt>
      <trkpt lat="47.7428" lon="7.04309">
        <ele>428</ele>
        <time>2016-07-03T08:55:43Z</time>
      </trkpt>
      <trkpt lat="47.74273" lon="7.04297">
        <ele>425</ele>
        <time>2016-07-03T08:55:52Z</time>
      </trkpt>
      <trkpt lat="47.74264" lon="7.04273">
        <ele>423</ele>
        <time>2016-07-03T08:56:08Z</time>
      </trkpt>
      <trkpt lat="47.74256" lon="7.04243">
        <ele>423</ele>
        <time>2016-07-03T08:56:25Z</time>
      </trkpt>
      <trkpt lat="47.7425" lon="7.04219">
        <ele>422</ele>
        <time>2016-07-03T08:56:39Z</time>
      </trkpt>
      <trkpt lat="47.74242" lon="7.042">
        <ele>422</ele>
        <time>2016-07-03T08:56:52Z</time>
      </trkpt>
      <trkpt lat="47.74232" lon="7.04178">
        <ele>420</ele>
        <time>2016-07-03T08:57:07Z</time>
      </trkpt>
      <trkpt lat="47.74217" lon="7.04157">
        <ele>419</ele>
        <time>2016-07-03T08:57:24Z</time>
      </trkpt>
      <trkpt lat="47.74204" lon="7.04139">
        <ele>419</ele>
        <time>2016-07-03T08:57:37Z</time>
      </trkpt>
      <trkpt lat="47.74192" lon="7.04126">
        <ele>417</ele>
        <time>2016-07-03T08:57:49Z</time>
      </trkpt>
      <trkpt lat="47.74173" lon="7.04102">
        <ele>418</ele>
        <time>2016-07-03T08:58:08Z</time>
      </trkpt>
      <trkpt lat="47.74167" lon="7.04093">
        <ele>418</ele>
        <time>2016-07-03T08:58:17Z</time>
      </trkpt>
      <trkpt lat="47.74162" lon="7.0409">
        <ele>414</ele>
        <time>2016-07-03T08:58:26Z</time>
      </trkpt>
      <trkpt lat="47.74151" lon="7.04068">
        <ele>413</ele>
        <time>2016-07-03T09:00:02Z</time>
      </trkpt>
      <trkpt lat="47.74141" lon="7.04029">
        <ele>416</ele>
        <time>2016-07-03T09:00:51Z</time>
      </trkpt>
      <trkpt lat="47.74138" lon="7.03994">
        <ele>418</ele>
        <time>2016-07-03T09:01:17Z</time>
      </trkpt>
      <trkpt lat="47.74136" lon="7.0397">
        <ele>418</ele>
        <time>2016-07-03T09:01:32Z</time>
      </trkpt>
      <trkpt lat="47.74133" lon="7.03945">
        <ele>418</ele>
        <time>2016-07-03T09:01:51Z</time>
      </trkpt>
      <trkpt lat="47.74128" lon="7.03912">
        <ele>422</ele>
        <time>2016-07-03T09:02:09Z</time>
      </trkpt>
      <trkpt lat="47.74125" lon="7.03886">
        <ele>421</ele>
        <time>2016-07-03T09:02:22Z</time>
      </trkpt>
      <trkpt lat="47.74126" lon="7.03879">
        <ele>423</ele>
        <time>2016-07-03T09:02:28Z</time>
      </trkpt>
      <trkpt lat="47.74126" lon="7.03874">
        <ele>424</ele>
        <time>2016-07-03T09:02:36Z</time>
      </trkpt>
      <trkpt lat="47.74135" lon="7.03846">
        <ele>426</ele>
        <time>2016-07-03T09:02:59Z</time>
      </trkpt>
      <trkpt lat="47.74138" lon="7.03817">
        <ele>423</ele>
        <time>2016-07-03T09:03:15Z</time>
      </trkpt>
      <trkpt lat="47.74129" lon="7.03791">
        <ele>423</ele>
        <time>2016-07-03T09:03:29Z</time>
      </trkpt>
      <trkpt lat="47.74127" lon="7.03764">
        <ele>424</ele>
        <time>2016-07-03T09:03:45Z</time>
      </trkpt>
      <trkpt lat="47.74118" lon="7.03762">
        <ele>424</ele>
        <time>2016-07-03T09:03:50Z</time>
      </trkpt>
      <trkpt lat="47.74108" lon="7.03768">
        <ele>425</ele>
        <time>2016-07-03T09:04:00Z</time>
      </trkpt>
      <trkpt lat="47.74092" lon="7.03784">
        <ele>427</ele>
        <time>2016-07-03T09:04:14Z</time>
      </trkpt>
      <trkpt lat="47.74092" lon="7.03784">
        <ele>427</ele>
        <time>2016-07-03T09:04:19Z</time>
      </trkpt>
      <trkpt lat="47.74092" lon="7.03784">
        <ele>427</ele>
        <time>2016-07-03T09:04:20Z</time>
      </trkpt>
      <trkpt lat="47.7408" lon="7.0379">
        <ele>424</ele>
        <time>2016-07-03T09:04:29Z</time>
      </trkpt>
      <trkpt lat="47.74056" lon="7.03801">
        <ele>419</ele>
        <time>2016-07-03T09:04:49Z</time>
      </trkpt>
      <trkpt lat="47.74041" lon="7.03813">
        <ele>422</ele>
        <time>2016-07-03T09:05:06Z</time>
      </trkpt>
      <trkpt lat="47.74019" lon="7.03826">
        <ele>425</ele>
        <time>2016-07-03T09:05:27Z</time>
      </trkpt>
      <trkpt lat="47.74006" lon="7.0384">
        <ele>425</ele>
        <time>2016-07-03T09:05:39Z</time>
      </trkpt>
      <trkpt lat="47.73993" lon="7.03854">
        <ele>426</ele>
        <time>2016-07-03T09:05:53Z</time>
      </trkpt>
      <trkpt lat="47.73982" lon="7.03871">
        <ele>423</ele>
        <time>2016-07-03T09:06:05Z</time>
      </trkpt>
      <trkpt lat="47.73973" lon="7.03886">
        <ele>426</ele>
        <time>2016-07-03T09:06:16Z</time>
      </trkpt>
      <trkpt lat="47.73962" lon="7.03907">
        <ele>427</ele>
        <time>2016-07-03T09:06:30Z</time>
      </trkpt>
      <trkpt lat="47.73949" lon="7.03918">
        <ele>428</ele>
        <time>2016-07-03T09:06:41Z</time>
      </trkpt>
      <trkpt lat="47.73941" lon="7.03934">
        <ele>426</ele>
        <time>2016-07-03T09:06:57Z</time>
      </trkpt>
      <trkpt lat="47.73924" lon="7.03958">
        <ele>432</ele>
        <time>2016-07-03T09:07:16Z</time>
      </trkpt>
      <trkpt lat="47.73914" lon="7.03975">
        <ele>430</ele>
        <time>2016-07-03T09:07:29Z</time>
      </trkpt>
      <trkpt lat="47.73902" lon="7.03999">
        <ele>430</ele>
        <time>2016-07-03T09:07:45Z</time>
      </trkpt>
      <trkpt lat="47.73888" lon="7.04018">
        <ele>428</ele>
        <time>2016-07-03T09:07:58Z</time>
      </trkpt>
      <trkpt lat="47.73881" lon="7.04035">
        <ele>431</ele>
        <time>2016-07-03T09:08:11Z</time>
      </trkpt>
      <trkpt lat="47.73872" lon="7.04051">
        <ele>430</ele>
        <time>2016-07-03T09:08:23Z</time>
      </trkpt>
      <trkpt lat="47.73864" lon="7.04065">
        <ele>436</ele>
        <time>2016-07-03T09:08:33Z</time>
      </trkpt>
      <trkpt lat="47.7385" lon="7.0409">
        <ele>430</ele>
        <time>2016-07-03T09:08:52Z</time>
      </trkpt>
      <trkpt lat="47.73841" lon="7.04102">
        <ele>429</ele>
        <time>2016-07-03T09:09:02Z</time>
      </trkpt>
      <trkpt lat="47.73831" lon="7.04118">
        <ele>426</ele>
        <time>2016-07-03T09:09:13Z</time>
      </trkpt>
      <trkpt lat="47.73827" lon="7.04122">
        <ele>428</ele>
        <time>2016-07-03T09:09:17Z</time>
      </trkpt>
      <trkpt lat="47.73827" lon="7.04124">
        <ele>428</ele>
        <time>2016-07-03T09:09:25Z</time>
      </trkpt>
      <trkpt lat="47.73818" lon="7.04141">
        <ele>427</ele>
        <time>2016-07-03T09:09:41Z</time>
      </trkpt>
      <trkpt lat="47.73807" lon="7.0416">
        <ele>427</ele>
        <time>2016-07-03T09:09:56Z</time>
      </trkpt>
      <trkpt lat="47.73802" lon="7.04175">
        <ele>428</ele>
        <time>2016-07-03T09:10:03Z</time>
      </trkpt>
      <trkpt lat="47.73799" lon="7.04178">
        <ele>430</ele>
        <time>2016-07-03T09:10:11Z</time>
      </trkpt>
      <trkpt lat="47.73791" lon="7.04196">
        <ele>426</ele>
        <time>2016-07-03T09:10:26Z</time>
      </trkpt>
      <trkpt lat="47.73789" lon="7.04199">
        <ele>423</ele>
        <time>2016-07-03T09:10:29Z</time>
      </trkpt>
      <trkpt lat="47.73787" lon="7.04212">
        <ele>424</ele>
        <time>2016-07-03T09:10:38Z</time>
      </trkpt>
      <trkpt lat="47.73784" lon="7.04223">
        <ele>421</ele>
        <time>2016-07-03T09:10:46Z</time>
      </trkpt>
      <trkpt lat="47.73773" lon="7.04246">
        <ele>421</ele>
        <time>2016-07-03T09:11:01Z</time>
      </trkpt>
      <trkpt lat="47.73771" lon="7.04265">
        <ele>425</ele>
        <time>2016-07-03T09:11:09Z</time>
      </trkpt>
      <trkpt lat="47.73765" lon="7.0428">
        <ele>424</ele>
        <time>2016-07-03T09:11:21Z</time>
      </trkpt>
      <trkpt lat="47.73758" lon="7.04304">
        <ele>424</ele>
        <time>2016-07-03T09:11:37Z</time>
      </trkpt>
      <trkpt lat="47.73752" lon="7.04325">
        <ele>423</ele>
        <time>2016-07-03T09:11:50Z</time>
      </trkpt>
      <trkpt lat="47.73747" lon="7.04343">
        <ele>422</ele>
        <time>2016-07-03T09:12:04Z</time>
      </trkpt>
      <trkpt lat="47.73741" lon="7.04363">
        <ele>422</ele>
        <time>2016-07-03T09:12:18Z</time>
      </trkpt>
      <trkpt lat="47.73732" lon="7.04392">
        <ele>418</ele>
        <time>2016-07-03T09:12:38Z</time>
      </trkpt>
      <trkpt lat="47.73723" lon="7.04419">
        <ele>419</ele>
        <time>2016-07-03T09:12:55Z</time>
      </trkpt>
      <trkpt lat="47.73714" lon="7.04441">
        <ele>415</ele>
        <time>2016-07-03T09:13:11Z</time>
      </trkpt>
      <trkpt lat="47.73703" lon="7.04462">
        <ele>410</ele>
        <time>2016-07-03T09:13:29Z</time>
      </trkpt>
      <trkpt lat="47.73697" lon="7.04485">
        <ele>412</ele>
        <time>2016-07-03T09:13:41Z</time>
      </trkpt>
      <trkpt lat="47.73695" lon="7.0451">
        <ele>411</ele>
        <time>2016-07-03T09:13:59Z</time>
      </trkpt>
      <trkpt lat="47.73692" lon="7.04523">
        <ele>408</ele>
        <time>2016-07-03T09:14:12Z</time>
      </trkpt>
      <trkpt lat="47.73685" lon="7.04545">
        <ele>409</ele>
        <time>2016-07-03T09:14:24Z</time>
      </trkpt>
      <trkpt lat="47.73678" lon="7.04575">
        <ele>404</ele>
        <time>2016-07-03T09:14:42Z</time>
      </trkpt>
      <trkpt lat="47.73666" lon="7.04599">
        <ele>408</ele>
        <time>2016-07-03T09:14:58Z</time>
      </trkpt>
      <trkpt lat="47.73656" lon="7.04623">
        <ele>399</ele>
        <time>2016-07-03T09:15:15Z</time>
      </trkpt>
      <trkpt lat="47.73648" lon="7.04642">
        <ele>399</ele>
        <time>2016-07-03T09:15:30Z</time>
      </trkpt>
      <trkpt lat="47.73639" lon="7.04669">
        <ele>396</ele>
        <time>2016-07-03T09:15:47Z</time>
      </trkpt>
      <trkpt lat="47.73631" lon="7.04693">
        <ele>400</ele>
        <time>2016-07-03T09:16:03Z</time>
      </trkpt>
      <trkpt lat="47.73627" lon="7.04707">
        <ele>404</ele>
        <time>2016-07-03T09:16:10Z</time>
      </trkpt>
      <trkpt lat="47.73622" lon="7.04721">
        <ele>404</ele>
        <time>2016-07-03T09:16:18Z</time>
      </trkpt>
      <trkpt lat="47.7361" lon="7.04746">
        <ele>403</ele>
        <time>2016-07-03T09:16:36Z</time>
      </trkpt>
      <trkpt lat="47.73597" lon="7.04768">
        <ele>405</ele>
        <time>2016-07-03T09:16:51Z</time>
      </trkpt>
      <trkpt lat="47.73584" lon="7.04798">
        <ele>404</ele>
        <time>2016-07-03T09:17:10Z</time>
      </trkpt>
      <trkpt lat="47.73575" lon="7.04818">
        <ele>410</ele>
        <time>2016-07-03T09:17:25Z</time>
      </trkpt>
      <trkpt lat="47.7357" lon="7.04836">
        <ele>407</ele>
        <time>2016-07-03T09:17:37Z</time>
      </trkpt>
      <trkpt lat="47.73563" lon="7.04854">
        <ele>409</ele>
        <time>2016-07-03T09:17:48Z</time>
      </trkpt>
      <trkpt lat="47.73553" lon="7.04873">
        <ele>408</ele>
        <time>2016-07-03T09:18:04Z</time>
      </trkpt>
      <trkpt lat="47.73534" lon="7.0489">
        <ele>405</ele>
        <time>2016-07-03T09:18:20Z</time>
      </trkpt>
      <trkpt lat="47.73527" lon="7.04911">
        <ele>402</ele>
        <time>2016-07-03T09:18:31Z</time>
      </trkpt>
      <trkpt lat="47.73517" lon="7.04933">
        <ele>403</ele>
        <time>2016-07-03T09:18:45Z</time>
      </trkpt>
      <trkpt lat="47.73505" lon="7.04959">
        <ele>407</ele>
        <time>2016-07-03T09:19:04Z</time>
      </trkpt>
      <trkpt lat="47.73496" lon="7.04974">
        <ele>410</ele>
        <time>2016-07-03T09:19:13Z</time>
      </trkpt>
      <trkpt lat="47.73488" lon="7.04987">
        <ele>406</ele>
        <time>2016-07-03T09:19:23Z</time>
      </trkpt>
      <trkpt lat="47.73477" lon="7.05012">
        <ele>406</ele>
        <time>2016-07-03T09:19:41Z</time>
      </trkpt>
      <trkpt lat="47.73472" lon="7.05033">
        <ele>409</ele>
        <time>2016-07-03T09:19:52Z</time>
      </trkpt>
      <trkpt lat="47.7347" lon="7.05048">
        <ele>408</ele>
        <time>2016-07-03T09:20:01Z</time>
      </trkpt>
      <trkpt lat="47.73469" lon="7.05066">
        <ele>407</ele>
        <time>2016-07-03T09:20:10Z</time>
      </trkpt>
      <trkpt lat="47.73468" lon="7.05082">
        <ele>406</ele>
        <time>2016-07-03T09:20:20Z</time>
      </trkpt>
      <trkpt lat="47.73463" lon="7.05107">
        <ele>409</ele>
        <time>2016-07-03T09:20:33Z</time>
      </trkpt>
      <trkpt lat="47.73467" lon="7.05129">
        <ele>404</ele>
        <time>2016-07-03T09:20:45Z</time>
      </trkpt>
      <trkpt lat="47.73469" lon="7.05158">
        <ele>400</ele>
        <time>2016-07-03T09:21:02Z</time>
      </trkpt>
      <trkpt lat="47.73469" lon="7.05173">
        <ele>404</ele>
        <time>2016-07-03T09:21:10Z</time>
      </trkpt>
      <trkpt lat="47.73471" lon="7.05197">
        <ele>402</ele>
        <time>2016-07-03T09:21:24Z</time>
      </trkpt>
      <trkpt lat="47.73469" lon="7.05225">
        <ele>396</ele>
        <time>2016-07-03T09:21:39Z</time>
      </trkpt>
      <trkpt lat="47.73464" lon="7.05257">
        <ele>400</ele>
        <time>2016-07-03T09:21:55Z</time>
      </trkpt>
      <trkpt lat="47.73458" lon="7.05276">
        <ele>401</ele>
        <time>2016-07-03T09:22:08Z</time>
      </trkpt>
      <trkpt lat="47.73455" lon="7.05303">
        <ele>398</ele>
        <time>2016-07-03T09:22:25Z</time>
      </trkpt>
      <trkpt lat="47.73453" lon="7.05329">
        <ele>396</ele>
        <time>2016-07-03T09:22:38Z</time>
      </trkpt>
      <trkpt lat="47.73451" lon="7.05351">
        <ele>396</ele>
        <time>2016-07-03T09:22:51Z</time>
      </trkpt>
      <trkpt lat="47.73447" lon="7.05377">
        <ele>393</ele>
        <time>2016-07-03T09:23:06Z</time>
      </trkpt>
      <trkpt lat="47.73446" lon="7.05409">
        <ele>394</ele>
        <time>2016-07-03T09:23:24Z</time>
      </trkpt>
      <trkpt lat="47.7344" lon="7.0544">
        <ele>397</ele>
        <time>2016-07-03T09:23:40Z</time>
      </trkpt>
      <trkpt lat="47.73431" lon="7.05454">
        <ele>395</ele>
        <time>2016-07-03T09:23:55Z</time>
      </trkpt>
      <trkpt lat="47.73426" lon="7.05483">
        <ele>395</ele>
        <time>2016-07-03T09:24:13Z</time>
      </trkpt>
      <trkpt lat="47.73423" lon="7.05511">
        <ele>398</ele>
        <time>2016-07-03T09:24:31Z</time>
      </trkpt>
      <trkpt lat="47.73418" lon="7.0554">
        <ele>397</ele>
        <time>2016-07-03T09:24:47Z</time>
      </trkpt>
      <trkpt lat="47.7341" lon="7.0557">
        <ele>395</ele>
        <time>2016-07-03T09:25:02Z</time>
      </trkpt>
      <trkpt lat="47.73405" lon="7.05591">
        <ele>396</ele>
        <time>2016-07-03T09:25:15Z</time>
      </trkpt>
      <trkpt lat="47.73397" lon="7.05619">
        <ele>394</ele>
        <time>2016-07-03T09:25:32Z</time>
      </trkpt>
      <trkpt lat="47.7339" lon="7.05635">
        <ele>391</ele>
        <time>2016-07-03T09:25:43Z</time>
      </trkpt>
      <trkpt lat="47.73382" lon="7.05656">
        <ele>395</ele>
        <time>2016-07-03T09:25:57Z</time>
      </trkpt>
      <trkpt lat="47.73378" lon="7.05675">
        <ele>396</ele>
        <time>2016-07-03T09:26:07Z</time>
      </trkpt>
      <trkpt lat="47.73367" lon="7.05658">
        <ele>393</ele>
        <time>2016-07-03T09:26:21Z</time>
      </trkpt>
      <trkpt lat="47.73354" lon="7.05637">
        <ele>397</ele>
        <time>2016-07-03T09:26:37Z</time>
      </trkpt>
      <trkpt lat="47.73342" lon="7.05623">
        <ele>397</ele>
        <time>2016-07-03T09:26:49Z</time>
      </trkpt>
      <trkpt lat="47.73328" lon="7.05612">
        <ele>402</ele>
        <time>2016-07-03T09:27:02Z</time>
      </trkpt>
      <trkpt lat="47.73315" lon="7.05601">
        <ele>402</ele>
        <time>2016-07-03T09:27:17Z</time>
      </trkpt>
      <trkpt lat="47.73296" lon="7.0559">
        <ele>404</ele>
        <time>2016-07-03T09:27:34Z</time>
      </trkpt>
      <trkpt lat="47.73276" lon="7.05578">
        <ele>403</ele>
        <time>2016-07-03T09:27:53Z</time>
      </trkpt>
      <trkpt lat="47.73256" lon="7.05571">
        <ele>404</ele>
        <time>2016-07-03T09:28:11Z</time>
      </trkpt>
      <trkpt lat="47.73241" lon="7.05566">
        <ele>408</ele>
        <time>2016-07-03T09:28:26Z</time>
      </trkpt>
      <trkpt lat="47.7322" lon="7.05563">
        <ele>408</ele>
        <time>2016-07-03T09:28:44Z</time>
      </trkpt>
      <trkpt lat="47.73211" lon="7.05555">
        <ele>412</ele>
        <time>2016-07-03T09:28:55Z</time>
      </trkpt>
      <trkpt lat="47.73207" lon="7.05553">
        <ele>410</ele>
        <time>2016-07-03T09:28:59Z</time>
      </trkpt>
      <trkpt lat="47.732" lon="7.05545">
        <ele>413</ele>
        <time>2016-07-03T09:29:11Z</time>
      </trkpt>
      <trkpt lat="47.73187" lon="7.05532">
        <ele>415</ele>
        <time>2016-07-03T09:29:24Z</time>
      </trkpt>
      <trkpt lat="47.73178" lon="7.05513">
        <ele>414</ele>
        <time>2016-07-03T09:29:43Z</time>
      </trkpt>
      <trkpt lat="47.73165" lon="7.05492">
        <ele>413</ele>
        <time>2016-07-03T09:30:03Z</time>
      </trkpt>
      <trkpt lat="47.73152" lon="7.05471">
        <ele>412</ele>
        <time>2016-07-03T09:30:21Z</time>
      </trkpt>
      <trkpt lat="47.73144" lon="7.05453">
        <ele>415</ele>
        <time>2016-07-03T09:30:37Z</time>
      </trkpt>
      <trkpt lat="47.7313" lon="7.05435">
        <ele>416</ele>
        <time>2016-07-03T09:30:55Z</time>
      </trkpt>
      <trkpt lat="47.73116" lon="7.05416">
        <ele>418</ele>
        <time>2016-07-03T09:31:14Z</time>
      </trkpt>
      <trkpt lat="47.73104" lon="7.05401">
        <ele>420</ele>
        <time>2016-07-03T09:31:31Z</time>
      </trkpt>
      <trkpt lat="47.73094" lon="7.05391">
        <ele>420</ele>
        <time>2016-07-03T09:31:44Z</time>
      </trkpt>
      <trkpt lat="47.73082" lon="7.05385">
        <ele>420</ele>
        <time>2016-07-03T09:31:56Z</time>
      </trkpt>
      <trkpt lat="47.73065" lon="7.05377">
        <ele>423</ele>
        <time>2016-07-03T09:32:15Z</time>
      </trkpt>
      <trkpt lat="47.73053" lon="7.05362">
        <ele>423</ele>
        <time>2016-07-03T09:32:35Z</time>
      </trkpt>
      <trkpt lat="47.73047" lon="7.0534">
        <ele>418</ele>
        <time>2016-07-03T09:32:53Z</time>
      </trkpt>
      <trkpt lat="47.73043" lon="7.05323">
        <ele>417</ele>
        <time>2016-07-03T09:33:05Z</time>
      </trkpt>
      <trkpt lat="47.73048" lon="7.0531">
        <ele>420</ele>
        <time>2016-07-03T09:33:15Z</time>
      </trkpt>
      <trkpt lat="47.73052" lon="7.05304">
        <ele>426</ele>
        <time>2016-07-03T09:33:26Z</time>
      </trkpt>
      <trkpt lat="47.73062" lon="7.05289">
        <ele>427</ele>
        <time>2016-07-03T09:33:40Z</time>
      </trkpt>
      <trkpt lat="47.73077" lon="7.05267">
        <ele>427</ele>
        <time>2016-07-03T09:33:59Z</time>
      </trkpt>
      <trkpt lat="47.73094" lon="7.05248">
        <ele>427</ele>
        <time>2016-07-03T09:34:19Z</time>
      </trkpt>
      <trkpt lat="47.73105" lon="7.05237">
        <ele>428</ele>
        <time>2016-07-03T09:34:32Z</time>
      </trkpt>
      <trkpt lat="47.73118" lon="7.05234">
        <ele>430</ele>
        <time>2016-07-03T09:34:45Z</time>
      </trkpt>
      <trkpt lat="47.73122" lon="7.05239">
        <ele>427</ele>
        <time>2016-07-03T09:34:47Z</time>
      </trkpt>
      <trkpt lat="47.73123" lon="7.05229">
        <ele>429</ele>
        <time>2016-07-03T09:34:56Z</time>
      </trkpt>
      <trkpt lat="47.73123" lon="7.05229">
        <ele>380.3</ele>
        <time>2016-07-03T09:36:44Z</time>
      </trkpt>
      <trkpt lat="47.73123" lon="7.05229">
        <ele>380.3</ele>
        <time>2016-07-03T09:36:45Z</time>
      </trkpt>
    </trkseg>
  </trk>
</gpx>